Time;durP1;ratioP1;P1;durP2;ratioP2;P2;SDS_P1;SDS_P2;PMS_P1;PMS_P2;Temp;Humidity;BMP_temperature;BMP_pressure;BME280_temperature;BME280_humidity;BME280_pressure;Samples;Min_cycle;Max_cycle;Signal;HPM_P1;HPM_P2
2024/02/04 12:26:54;;;;;;;16.10;6.68;;;17.30;68.30;;;;;;5096211;22;20058;-77
2024/02/04 12:29:21;;;;;;;12.27;6.18;;;17.30;66.40;;;;;;5095044;28;20043;-75
2024/02/04 12:31:47;;;;;;;12.40;7.10;;;17.30;65.30;;;;;;5093617;28;20032;-76
2024/02/04 12:34:13;;;;;;;13.55;7.45;;;17.40;65.00;;;;;;5094709;28;20062;-80
2024/02/04 12:36:38;;;;;;;14.13;7.82;;;17.50;65.10;;;;;;5094765;28;20032;-74
2024/02/04 12:39:07;;;;;;;13.88;7.10;;;17.60;64.90;;;;;;5094559;28;20038;-75
2024/02/04 12:41:33;;;;;;;13.23;7.50;;;17.80;64.20;;;;;;5094640;28;20362;-79
2024/02/04 12:44:04;;;;;;;11.07;6.22;;;17.80;64.30;;;;;;5094764;28;20043;-80
2024/02/04 12:46:30;;;;;;;11.88;6.53;;;17.90;63.40;;;;;;5094787;28;20413;-79
2024/02/04 12:48:57;;;;;;;11.73;5.88;;;17.90;62.80;;;;;;5094657;28;20028;-76
2024/02/04 12:51:37;;;;;;;12.38;5.93;;;18.00;62.50;;;;;;5094527;28;20140;-77
2024/02/04 12:54:06;;;;;;;10.68;5.20;;;18.10;62.00;;;;;;5089775;28;20052;-76
2024/02/04 12:56:51;;;;;;;15.23;5.30;;;18.30;60.90;;;;;;5094036;28;20032;-80
2024/02/04 12:59:30;;;;;;;10.63;5.40;;;18.40;61.00;;;;;;5094165;28;20086;-77
2024/02/04 13:01:57;;;;;;;12.38;5.63;;;18.50;60.50;;;;;;5094335;28;20036;-77
2024/02/04 13:04:23;;;;;;;11.35;5.68;;;18.50;60.70;;;;;;5092305;28;20036;-77
2024/02/04 13:06:49;;;;;;;11.38;6.28;;;18.60;60.20;;;;;;5092940;28;20081;-78
2024/02/04 13:09:16;;;;;;;11.02;6.10;;;18.60;59.80;;;;;;5093740;28;20376;-76
2024/02/04 13:11:42;;;;;;;12.30;5.85;;;18.60;59.30;;;;;;5093817;28;20555;-78
2024/02/04 13:14:08;;;;;;;10.63;6.07;;;18.60;59.50;;;;;;5092365;28;20028;-76
2024/02/04 13:16:35;;;;;;;11.90;5.95;;;18.60;59.80;;;;;;5091851;28;20102;-76
2024/02/04 13:19:02;;;;;;;12.32;6.45;;;18.70;59.30;;;;;;5093495;28;20063;-75
2024/02/04 13:21:28;;;;;;;16.33;6.55;;;18.60;58.80;;;;;;5093883;28;20032;-76
2024/02/04 13:23:54;;;;;;;14.18;6.93;;;18.60;58.50;;;;;;5093049;28;20028;-74
2024/02/04 13:26:20;;;;;;;12.07;6.28;;;18.60;58.60;;;;;;5094870;28;20055;-81
2024/02/04 13:28:46;;;;;;;10.93;5.70;;;18.60;58.90;;;;;;5094680;28;20040;-80
2024/02/04 13:31:12;;;;;;;11.63;6.20;;;18.70;58.80;;;;;;5094974;28;20055;-78
2024/02/04 13:33:41;;;;;;;11.18;6.88;;;18.60;58.80;;;;;;5077370;28;20090;-80
2024/02/04 13:36:10;;;;;;;11.82;6.47;;;18.70;59.10;;;;;;5076569;28;20048;-83
2024/02/04 13:38:36;;;;;;;11.50;6.07;;;18.70;58.50;;;;;;5094018;28;20032;-77
2024/02/04 13:41:06;;;;;;;11.02;5.88;;;18.70;58.50;;;;;;5093637;28;20043;-79
2024/02/04 13:43:31;;;;;;;11.40;6.00;;;18.70;58.10;;;;;;5075893;28;20039;-81
2024/02/04 13:45:57;;;;;;;10.15;5.45;;;18.70;58.00;;;;;;5093315;28;20106;-80
2024/02/04 13:48:25;;;;;;;9.02;5.68;;;18.60;57.30;;;;;;5093652;28;20089;-83
2024/02/04 13:50:51;;;;;;;9.57;5.35;;;18.70;57.30;;;;;;5093584;28;20028;-80
2024/02/04 13:53:17;;;;;;;11.23;5.45;;;18.70;56.70;;;;;;5093343;28;20473;-82
2024/02/04 13:55:45;;;;;;;11.75;5.80;;;18.70;57.00;;;;;;5093213;28;20043;-80
2024/02/04 13:58:11;;;;;;;13.00;5.78;;;18.80;56.50;;;;;;5093124;28;20039;-82
2024/02/04 14:00:37;;;;;;;12.43;5.90;;;18.80;56.40;;;;;;5093645;28;20032;-79
2024/02/04 14:03:03;;;;;;;9.90;5.43;;;18.90;56.70;;;;;;5093561;28;20032;-79
2024/02/04 14:05:28;;;;;;;13.90;5.95;;;18.90;56.90;;;;;;5093301;28;20105;-79
2024/02/04 14:07:54;;;;;;;10.95;6.03;;;18.90;56.40;;;;;;5092759;28;20028;-76
2024/02/04 14:10:20;;;;;;;12.20;5.80;;;18.90;56.30;;;;;;5092893;28;20046;-78
2024/02/04 14:12:47;;;;;;;11.88;5.82;;;18.90;55.90;;;;;;5092701;28;20039;-79
2024/02/04 14:15:12;;;;;;;9.40;6.28;;;19.00;56.20;;;;;;5091191;28;20043;-79
2024/02/04 14:17:38;;;;;;;13.25;6.03;;;19.00;56.80;;;;;;5092994;28;20035;-76
2024/02/04 14:20:06;;;;;;;12.80;5.80;;;19.00;56.60;;;;;;5091336;28;20442;-78
2024/02/04 14:22:32;;;;;;;13.27;7.00;;;19.10;56.60;;;;;;5092972;28;20059;-78
2024/02/04 14:24:59;;;;;;;13.52;6.40;;;19.10;56.50;;;;;;5093310;28;20491;-76
2024/02/04 14:27:25;;;;;;;11.63;6.35;;;19.10;56.30;;;;;;5076390;28;20040;-76
2024/02/04 14:29:51;;;;;;;12.43;6.55;;;19.10;56.50;;;;;;5093765;28;20481;-75
2024/02/04 14:32:17;;;;;;;13.05;6.20;;;19.10;56.50;;;;;;5092559;28;20028;-76
2024/02/04 14:34:43;;;;;;;13.20;6.47;;;19.20;56.80;;;;;;5091428;28;20116;-76
2024/02/04 14:37:10;;;;;;;11.02;6.57;;;19.20;56.80;;;;;;5093160;28;20036;-78
2024/02/04 14:39:36;;;;;;;12.30;6.28;;;19.20;56.70;;;;;;5092744;28;20093;-76
2024/02/04 14:42:02;;;;;;;12.93;6.57;;;19.10;56.90;;;;;;5092578;28;20423;-78
2024/02/04 14:44:28;;;;;;;13.65;6.15;;;19.10;57.30;;;;;;5092488;28;20101;-79
2024/02/04 14:46:53;;;;;;;13.93;6.78;;;19.10;56.90;;;;;;5092585;28;20020;-80
2024/02/04 14:49:19;;;;;;;11.30;6.18;;;19.00;56.80;;;;;;5092576;28;20485;-79
2024/02/04 14:51:45;;;;;;;12.93;6.40;;;19.00;56.40;;;;;;5091838;28;20484;-78
2024/02/04 14:54:10;;;;;;;15.30;6.72;;;19.00;56.30;;;;;;5092429;28;20445;-78
2024/02/04 14:56:40;;;;;;;11.90;5.90;;;19.00;56.20;;;;;;5093757;28;20140;-77
2024/02/04 14:59:10;;;;;;;9.95;5.72;;;19.00;56.20;;;;;;5093259;28;20490;-79
2024/02/04 15:01:36;;;;;;;11.55;5.85;;;18.90;55.70;;;;;;5075008;28;20110;-79
2024/02/04 15:04:02;;;;;;;12.07;6.57;;;18.90;55.90;;;;;;5093085;28;20066;-79
2024/02/04 15:06:29;;;;;;;11.95;5.70;;;18.80;56.20;;;;;;5093138;28;20071;-78
2024/02/04 15:08:55;;;;;;;14.82;6.60;;;18.80;57.70;;;;;;5092064;28;20036;-79
2024/02/04 15:11:22;;;;;;;12.70;6.07;;;18.70;59.30;;;;;;5093324;28;20139;-78
2024/02/04 15:13:48;;;;;;;16.10;7.22;;;18.70;60.40;;;;;;5092859;28;20477;-77
2024/02/04 15:16:14;;;;;;;11.40;6.43;;;18.60;61.20;;;;;;5092289;28;20097;-79
2024/02/04 15:18:40;;;;;;;9.43;5.90;;;18.50;62.00;;;;;;5091262;28;20033;-78
2024/02/04 15:21:06;;;;;;;12.35;5.97;;;18.50;62.50;;;;;;5093024;28;20071;-78
2024/02/04 15:23:33;;;;;;;8.80;5.72;;;18.40;62.40;;;;;;5093186;28;20039;-77
2024/02/04 15:25:59;;;;;;;12.20;5.35;;;18.30;62.80;;;;;;5092314;28;20470;-77
2024/02/04 15:28:25;;;;;;;11.02;5.30;;;18.30;63.00;;;;;;5092404;28;20059;-78
2024/02/04 15:30:51;;;;;;;11.48;5.30;;;18.20;63.30;;;;;;5075143;28;20028;-78
2024/02/04 15:33:17;;;;;;;11.55;5.20;;;18.10;63.60;;;;;;5096156;28;20032;-81
2024/02/04 15:35:44;;;;;;;15.05;4.90;;;18.00;63.70;;;;;;5096099;28;20064;-79
2024/02/04 15:38:10;;;;;;;12.20;4.88;;;17.90;64.00;;;;;;5096092;28;20044;-80
2024/02/04 15:40:36;;;;;;;14.13;5.28;;;17.80;64.30;;;;;;5096171;28;20506;-78
2024/02/04 15:43:02;;;;;;;12.82;5.70;;;17.70;64.50;;;;;;5096158;28;20032;-77
2024/02/04 15:45:28;;;;;;;11.25;5.00;;;17.60;64.80;;;;;;5096816;28;20032;-77
2024/02/04 15:47:54;;;;;;;11.40;5.40;;;17.60;64.90;;;;;;5095875;28;20513;-78
2024/02/04 15:50:20;;;;;;;10.18;5.18;;;17.60;65.10;;;;;;5096913;28;20036;-77
2024/02/04 15:52:47;;;;;;;13.85;5.20;;;17.60;65.00;;;;;;5096451;28;20024;-80
2024/02/04 15:55:15;;;;;;;11.25;4.60;;;17.50;65.10;;;;;;5077780;28;20042;-78
2024/02/04 15:57:51;;;;;;;12.70;5.78;;;17.40;65.40;;;;;;5096007;28;20083;-80
2024/02/04 16:00:22;;;;;;;14.18;5.30;;;17.30;66.10;;;;;;5095288;28;20028;-77
2024/02/04 16:02:49;;;;;;;14.13;5.68;;;17.20;65.90;;;;;;5095573;28;20374;-79
2024/02/04 16:05:16;;;;;;;10.18;5.38;;;17.10;66.30;;;;;;5094241;28;20030;-78
2024/02/04 16:07:42;;;;;;;13.15;5.10;;;17.00;66.90;;;;;;5095157;28;20075;-77
2024/02/04 16:10:10;;;;;;;13.95;6.00;;;16.90;67.00;;;;;;5095334;28;20036;-78
2024/02/04 16:12:36;;;;;;;13.13;5.68;;;16.80;67.10;;;;;;5095177;28;20036;-77
2024/02/04 16:15:05;;;;;;;16.63;6.22;;;16.80;67.40;;;;;;5095584;28;20032;-79
2024/02/04 16:17:35;;;;;;;12.75;5.57;;;16.70;67.80;;;;;;5096403;28;20040;-80
2024/02/04 16:20:02;;;;;;;15.65;5.53;;;16.60;68.00;;;;;;5096050;28;20397;-79
2024/02/04 16:22:28;;;;;;;17.00;5.07;;;16.50;68.00;;;;;;5095032;28;20036;-79
2024/02/04 16:24:53;;;;;;;16.35;5.55;;;16.40;68.10;;;;;;5094936;28;20056;-77
2024/02/04 16:27:19;;;;;;;16.60;5.32;;;16.20;68.10;;;;;;5094687;28;20125;-78
2024/02/04 16:29:45;;;;;;;10.05;4.75;;;16.10;68.10;;;;;;5095079;28;20393;-78
2024/02/04 16:32:16;;;;;;;14.73;5.22;;;16.10;68.40;;;;;;5095117;28;20474;-78
2024/02/04 16:34:42;;;;;;;13.90;5.47;;;16.00;68.70;;;;;;5094834;28;20107;-79
2024/02/04 16:37:09;;;;;;;10.90;5.20;;;15.90;68.70;;;;;;5094433;28;20115;-80
2024/02/04 16:39:38;;;;;;;12.82;6.10;;;15.80;69.10;;;;;;5094923;28;20108;-79
2024/02/04 16:42:04;;;;;;;13.20;6.38;;;15.80;69.30;;;;;;5094672;28;20032;-79
2024/02/04 16:44:30;;;;;;;13.98;7.53;;;15.70;69.80;;;;;;5094998;28;20107;-78
2024/02/04 16:46:56;;;;;;;17.42;8.40;;;15.60;70.00;;;;;;5094586;28;20119;-79
2024/02/04 16:49:23;;;;;;;19.70;8.25;;;15.60;70.30;;;;;;5094450;28;20024;-78
2024/02/04 16:51:49;;;;;;;20.83;10.25;;;15.50;70.80;;;;;;5093155;28;20028;-77
2024/02/04 16:54:18;;;;;;;17.50;7.93;;;15.40;71.10;;;;;;5094591;28;20032;-78
2024/02/04 16:56:46;;;;;;;17.00;8.10;;;15.40;71.60;;;;;;5094169;28;20186;-78
2024/02/04 16:59:13;;;;;;;14.60;7.22;;;15.30;71.90;;;;;;5094326;28;20039;-78
2024/02/04 17:01:38;;;;;;;16.92;6.78;;;15.30;72.20;;;;;;5094519;28;20561;-78
2024/02/04 17:04:05;;;;;;;19.83;8.85;;;15.20;72.40;;;;;;5094083;28;20103;-79
2024/02/04 17:06:31;;;;;;;20.17;7.88;;;15.20;72.90;;;;;;5095645;28;20031;-77
2024/02/04 17:08:58;;;;;;;13.82;7.30;;;15.10;73.30;;;;;;5094610;28;20032;-79
2024/02/04 17:11:25;;;;;;;17.45;7.13;;;15.10;73.80;;;;;;5093888;28;20071;-78
2024/02/04 17:13:52;;;;;;;13.43;6.72;;;15.00;73.90;;;;;;5093945;28;20043;-78
2024/02/04 17:16:41;;;;;;;15.32;7.85;;;15.00;74.40;;;;;;5093898;28;20044;-78
2024/02/04 17:19:40;;;;;;;16.58;7.05;;;15.00;74.60;;;;;;5093675;28;20036;-78
2024/02/04 17:22:17;;;;;;;14.38;6.82;;;15.00;74.70;;;;;;5062541;28;20044;-80
2024/02/04 17:24:49;;;;;;;13.45;6.60;;;14.90;75.00;;;;;;5075844;28;20024;-78
2024/02/04 17:27:17;;;;;;;15.10;6.63;;;14.90;75.20;;;;;;5094224;28;20497;-78
2024/02/04 17:29:44;;;;;;;12.43;6.18;;;14.80;75.20;;;;;;5092840;28;20040;-78
2024/02/04 17:32:14;;;;;;;13.88;6.97;;;14.80;75.50;;;;;;5094004;28;20388;-80
2024/02/04 17:34:40;;;;;;;19.80;9.73;;;14.70;75.70;;;;;;5095722;28;20135;-77
2024/02/04 17:37:09;;;;;;;15.82;9.45;;;14.70;75.80;;;;;;5094339;28;20067;-80
2024/02/04 17:39:37;;;;;;;22.60;11.60;;;14.70;76.30;;;;;;5093952;28;20036;-78
2024/02/04 17:42:05;;;;;;;17.73;9.77;;;14.60;76.40;;;;;;5093983;28;20036;-78
2024/02/04 17:44:33;;;;;;;18.58;8.75;;;14.60;76.50;;;;;;5095005;28;20032;-80
2024/02/04 17:46:58;;;;;;;16.92;8.98;;;14.60;76.60;;;;;;5096148;28;20036;-78
2024/02/04 17:49:24;;;;;;;21.70;8.35;;;14.50;76.70;;;;;;5094252;28;20447;-78
2024/02/04 17:51:50;;;;;;;18.05;7.60;;;14.50;77.00;;;;;;5094014;28;20032;-78
2024/02/04 17:54:16;;;;;;;17.67;7.38;;;14.50;77.20;;;;;;5092995;28;20032;-77
2024/02/04 17:56:41;;;;;;;22.98;8.40;;;14.40;77.20;;;;;;5093254;28;20063;-79
2024/02/04 17:59:07;;;;;;;17.23;8.60;;;14.40;77.60;;;;;;5093305;28;20554;-78
2024/02/04 18:01:33;;;;;;;16.92;9.52;;;14.40;77.60;;;;;;5094461;28;20036;-78
2024/02/04 18:03:58;;;;;;;23.25;9.93;;;14.30;77.70;;;;;;5093137;28;20032;-76
2024/02/04 18:06:25;;;;;;;21.45;11.48;;;14.30;77.90;;;;;;5093894;28;20374;-78
2024/02/04 18:08:51;;;;;;;20.48;11.35;;;14.30;78.20;;;;;;5093482;28;20039;-77
2024/02/04 18:11:25;;;;;;;23.13;11.55;;;14.20;78.20;;;;;;5093501;28;20043;-80
2024/02/04 18:13:51;;;;;;;20.48;11.40;;;14.20;78.40;;;;;;5093147;28;20036;-78
2024/02/04 18:16:17;;;;;;;21.60;11.27;;;14.10;78.50;;;;;;5075090;28;20067;-78
2024/02/04 18:18:43;;;;;;;23.23;12.68;;;14.10;78.80;;;;;;5093782;28;20028;-80
2024/02/04 18:21:25;;;;;;;22.23;13.27;;;14.10;78.90;;;;;;5094098;28;20074;-78
2024/02/04 18:23:52;;;;;;;25.25;13.05;;;14.00;79.00;;;;;;5093219;28;20028;-77
2024/02/04 18:26:26;;;;;;;22.55;13.25;;;14.00;79.20;;;;;;5093461;28;20473;-79
2024/02/04 18:28:53;;;;;;;19.98;12.23;;;14.00;79.40;;;;;;5093252;28;20071;-78
2024/02/04 18:31:19;;;;;;;25.00;13.00;;;14.00;79.60;;;;;;5075005;28;20028;-77
2024/02/04 18:33:47;;;;;;;24.33;12.50;;;13.90;79.70;;;;;;5093440;28;20036;-78
2024/02/04 18:36:14;;;;;;;19.15;12.10;;;13.90;79.90;;;;;;5093040;28;20418;-79
2024/02/04 18:38:39;;;;;;;23.17;11.35;;;13.90;80.00;;;;;;5092722;28;20060;-78
2024/02/04 18:41:09;;;;;;;20.45;12.07;;;13.90;80.20;;;;;;5093945;28;20055;-78
2024/02/04 18:43:35;;;;;;;28.40;14.73;;;13.90;80.60;;;;;;5093122;28;20032;-78
2024/02/04 18:46:00;;;;;;;26.77;13.48;;;13.80;80.70;;;;;;5092926;28;20111;-78
2024/02/04 18:48:26;;;;;;;26.38;14.30;;;13.80;80.80;;;;;;5092957;28;20048;-80
2024/02/04 18:50:52;;;;;;;27.13;13.73;;;13.80;81.10;;;;;;5093851;28;20060;-79
2024/02/04 18:53:17;;;;;;;25.02;14.65;;;13.70;81.30;;;;;;5093880;28;20489;-78
2024/02/04 18:55:43;;;;;;;26.60;14.30;;;13.70;81.50;;;;;;5092832;28;20066;-79
2024/02/04 18:58:09;;;;;;;25.85;14.70;;;13.70;81.70;;;;;;5074457;28;20063;-77
2024/02/04 19:00:35;;;;;;;24.88;15.00;;;13.70;82.00;;;;;;5092700;28;20036;-77
2024/02/04 19:03:01;;;;;;;29.02;13.90;;;13.70;82.00;;;;;;5092521;28;20028;-78
2024/02/04 19:05:27;;;;;;;31.10;14.43;;;13.70;82.20;;;;;;5094473;28;20112;-77
2024/02/04 19:07:53;;;;;;;29.67;14.73;;;13.70;82.50;;;;;;5096603;28;20035;-78
2024/02/04 19:10:18;;;;;;;32.78;17.27;;;13.60;82.70;;;;;;5097030;28;20031;-79
2024/02/04 19:12:46;;;;;;;36.58;17.45;;;13.60;82.80;;;;;;5098103;28;20039;-80
2024/02/04 19:15:12;;;;;;;24.85;16.50;;;13.60;82.80;;;;;;5096596;28;20032;-79
2024/02/04 19:17:39;;;;;;;29.27;16.10;;;13.60;83.30;;;;;;5100254;28;20040;-80
2024/02/04 19:20:08;;;;;;;25.48;14.50;;;13.60;83.20;;;;;;5097687;28;20040;-78
2024/02/04 19:22:40;;;;;;;25.95;15.73;;;13.60;83.40;;;;;;5097500;28;20036;-82
2024/02/04 19:25:08;;;;;;;25.50;16.38;;;13.60;83.60;;;;;;5097609;28;20040;-81
2024/02/04 19:27:35;;;;;;;31.13;16.92;;;13.60;83.80;;;;;;5097663;28;20127;-82
2024/02/04 19:30:01;;;;;;;28.25;15.35;;;13.60;83.80;;;;;;5098477;28;20032;-85
2024/02/04 19:32:26;;;;;;;26.60;15.07;;;13.50;83.90;;;;;;5099018;28;20039;-86
2024/02/04 19:34:52;;;;;;;25.60;14.95;;;13.50;83.90;;;;;;5100231;28;20117;-82
2024/02/04 19:37:18;;;;;;;26.90;16.05;;;13.50;84.30;;;;;;5098118;28;20482;-83
2024/02/04 19:39:45;;;;;;;28.13;16.95;;;13.50;84.40;;;;;;5099979;28;20115;-82
2024/02/04 19:42:10;;;;;;;25.65;16.60;;;13.50;84.70;;;;;;5103933;28;20112;-86
2024/02/04 19:44:36;;;;;;;23.77;16.00;;;13.50;84.80;;;;;;5099794;28;20032;-79
2024/02/04 19:47:02;;;;;;;33.80;16.05;;;13.40;84.80;;;;;;5098944;28;20032;-83
2024/02/04 19:49:27;;;;;;;30.45;17.95;;;13.50;84.90;;;;;;5097239;28;20073;-80
2024/02/04 19:51:54;;;;;;;28.10;17.50;;;13.40;85.20;;;;;;5097603;28;20044;-84
2024/02/04 19:54:20;;;;;;;31.88;17.50;;;13.40;85.30;;;;;;5096975;28;20028;-87
2024/02/04 19:56:46;;;;;;;32.83;17.63;;;13.40;85.40;;;;;;5098355;28;20088;-86
2024/02/04 19:59:12;;;;;;;30.08;18.58;;;13.40;85.60;;;;;;5098521;28;20029;-89
2024/02/04 20:01:38;;;;;;;31.00;17.38;;;13.40;85.80;;;;;;5097103;28;20078;-78
2024/02/04 20:04:03;;;;;;;27.48;15.93;;;13.40;85.90;;;;;;5095296;28;20078;-74
2024/02/04 20:06:30;;;;;;;28.00;16.98;;;13.40;85.90;;;;;;5096377;28;20055;-81
2024/02/04 20:08:56;;;;;;;25.27;18.00;;;13.40;86.20;;;;;;5097258;28;20127;-80
2024/02/04 20:11:22;;;;;;;32.08;20.40;;;13.40;86.10;;;;;;5096018;28;20105;-81
2024/02/04 20:13:48;;;;;;;29.60;19.35;;;13.40;86.20;;;;;;5096886;28;20393;-78
2024/02/04 20:16:14;;;;;;;30.13;19.17;;;13.40;86.20;;;;;;5096892;28;20043;-88
2024/02/04 20:18:39;;;;;;;34.65;20.75;;;13.30;86.30;;;;;;5095834;28;20119;-81
2024/02/04 20:21:05;;;;;;;33.15;20.63;;;13.30;86.30;;;;;;5102596;28;20040;-76
2024/02/04 20:23:31;;;;;;;36.80;22.25;;;13.30;86.30;;;;;;5096116;28;20093;-73
2024/02/04 20:25:56;;;;;;;37.15;22.65;;;13.30;86.30;;;;;;5094784;28;20040;-76
2024/02/04 20:28:23;;;;;;;36.47;22.50;;;13.30;86.60;;;;;;5095069;28;20439;-73
2024/02/04 20:30:49;;;;;;;33.67;21.98;;;13.20;86.30;;;;;;5095909;28;20040;-74
2024/02/04 20:33:15;;;;;;;40.67;23.17;;;13.20;86.40;;;;;;5077104;28;20028;-74
2024/02/04 20:35:43;;;;;;;38.08;22.27;;;13.20;86.60;;;;;;5094683;28;20032;-74
2024/02/04 20:38:09;;;;;;;37.45;23.00;;;13.20;86.60;;;;;;5076481;28;20036;-73
2024/02/04 20:40:35;;;;;;;39.58;25.33;;;13.20;86.60;;;;;;5094682;28;20166;-73
2024/02/04 20:43:01;;;;;;;34.80;24.13;;;13.10;86.60;;;;;;5094559;28;20091;-73
2024/02/04 20:45:30;;;;;;;38.47;24.25;;;13.10;86.90;;;;;;5094496;28;20035;-73
2024/02/04 20:47:57;;;;;;;41.13;24.90;;;13.10;87.00;;;;;;5094513;28;20115;-74
2024/02/04 20:50:23;;;;;;;35.28;24.10;;;13.00;87.10;;;;;;5094210;28;20064;-71
2024/02/04 20:52:48;;;;;;;34.88;24.30;;;13.00;87.10;;;;;;5094864;28;20060;-72
2024/02/04 20:55:16;;;;;;;39.88;27.23;;;13.00;87.20;;;;;;5095226;28;20036;-76
2024/02/04 20:57:41;;;;;;;41.95;26.38;;;13.00;87.20;;;;;;5094105;28;20413;-72
2024/02/04 21:00:08;;;;;;;42.30;26.75;;;12.90;87.00;;;;;;5093139;28;20042;-73
2024/02/04 21:02:33;;;;;;;41.90;25.23;;;12.90;87.10;;;;;;5094436;28;20067;-73
2024/02/04 21:04:59;;;;;;;39.88;26.35;;;12.90;87.20;;;;;;5094303;28;20059;-73
2024/02/04 21:07:28;;;;;;;36.00;27.10;;;13.00;87.20;;;;;;5093966;28;20060;-72
2024/02/04 21:09:53;;;;;;;40.75;27.95;;;13.00;87.40;;;;;;5092588;28;20051;-72
2024/02/04 21:12:19;;;;;;;42.85;28.83;;;12.90;87.20;;;;;;5093932;28;20040;-73
2024/02/04 21:14:45;;;;;;;43.22;28.90;;;12.80;87.30;;;;;;5093933;28;20082;-73
2024/02/04 21:17:11;;;;;;;41.17;27.52;;;12.80;87.30;;;;;;5094097;28;20120;-71
2024/02/04 21:19:37;;;;;;;45.70;31.40;;;12.80;87.70;;;;;;5092892;28;20040;-73
2024/02/04 21:22:04;;;;;;;44.33;30.42;;;12.70;87.40;;;;;;5094120;28;20032;-73
2024/02/04 21:24:30;;;;;;;45.13;30.42;;;12.70;87.60;;;;;;5093446;28;20100;-73
2024/02/04 21:26:55;;;;;;;45.47;30.63;;;12.60;87.60;;;;;;5092163;28;20056;-73
2024/02/04 21:29:21;;;;;;;41.67;29.75;;;12.60;87.60;;;;;;5092791;28;20133;-74
2024/02/04 21:31:47;;;;;;;47.03;30.35;;;12.60;87.90;;;;;;5093382;28;20081;-73
2024/02/04 21:34:14;;;;;;;45.05;29.92;;;12.50;87.60;;;;;;5093247;28;20024;-73
2024/02/04 21:36:41;;;;;;;43.72;31.08;;;12.50;87.80;;;;;;5092200;28;20052;-71
2024/02/04 21:39:08;;;;;;;41.75;28.80;;;12.50;87.70;;;;;;5093684;28;20034;-72
2024/02/04 21:41:34;;;;;;;45.83;29.08;;;12.50;87.70;;;;;;5093276;28;20515;-71
2024/02/04 21:43:59;;;;;;;44.90;29.50;;;12.40;87.60;;;;;;5093395;28;20028;-72
2024/02/04 21:46:25;;;;;;;43.38;29.50;;;12.40;87.80;;;;;;5091785;28;20040;-72
2024/02/04 21:48:51;;;;;;;46.28;30.73;;;12.30;87.70;;;;;;5075076;28;20029;-73
2024/02/04 21:51:16;;;;;;;47.83;29.73;;;12.30;87.60;;;;;;5091674;28;20070;-71
2024/02/04 21:53:42;;;;;;;42.20;30.60;;;12.30;87.60;;;;;;5093316;28;20024;-71
2024/02/04 21:56:08;;;;;;;48.05;30.63;;;12.30;87.50;;;;;;5094871;28;20315;-71
2024/02/04 21:58:34;;;;;;;48.47;31.98;;;12.40;87.60;;;;;;5093325;28;20032;-69
2024/02/04 22:01:00;;;;;;;39.13;28.27;;;12.40;87.70;;;;;;5074912;28;20051;-71
2024/02/04 22:03:25;;;;;;;43.28;30.60;;;12.40;87.50;;;;;;5092896;28;20071;-70
2024/02/04 22:05:51;;;;;;;43.42;30.23;;;12.40;87.30;;;;;;5093248;28;20036;-70
2024/02/04 22:08:17;;;;;;;42.63;30.42;;;12.40;87.40;;;;;;5075218;28;20032;-71
2024/02/04 22:10:43;;;;;;;43.45;29.40;;;12.40;87.60;;;;;;5094312;28;20119;-71
2024/02/04 22:13:09;;;;;;;45.88;30.55;;;12.40;87.30;;;;;;5092226;28;20118;-70
2024/02/04 22:15:36;;;;;;;47.28;30.92;;;12.40;87.50;;;;;;5093030;28;20044;-71
2024/02/04 22:18:03;;;;;;;46.80;31.67;;;12.40;87.40;;;;;;5093242;28;20032;-70
2024/02/04 22:20:29;;;;;;;42.85;29.08;;;12.50;87.70;;;;;;5092874;28;20028;-70
2024/02/04 22:22:55;;;;;;;39.13;28.25;;;12.40;87.60;;;;;;5092827;28;20028;-69
2024/02/04 22:25:27;;;;;;;48.22;31.35;;;12.40;87.40;;;;;;5092564;28;20044;-74
2024/02/04 22:27:56;;;;;;;46.05;31.33;;;12.40;87.20;;;;;;5092554;28;20058;-73
2024/02/04 22:30:24;;;;;;;43.53;30.90;;;12.30;87.70;;;;;;5092475;28;20055;-72
2024/02/04 22:32:50;;;;;;;42.95;30.92;;;12.30;87.80;;;;;;5092383;28;20032;-71
2024/02/04 22:35:15;;;;;;;45.30;31.48;;;12.30;87.60;;;;;;5090935;28;20035;-71
2024/02/04 22:37:41;;;;;;;45.65;32.67;;;12.30;87.50;;;;;;5092470;28;20123;-71
2024/02/04 22:40:09;;;;;;;41.65;32.13;;;12.30;87.40;;;;;;5095628;28;20024;-72
2024/02/04 22:42:35;;;;;;;44.88;32.17;;;12.10;87.40;;;;;;5099523;28;20035;-71
2024/02/04 22:45:01;;;;;;;44.28;31.67;;;12.00;87.60;;;;;;5099142;28;20081;-71
2024/02/04 22:47:27;;;;;;;51.75;33.78;;;12.00;87.70;;;;;;5081080;28;20040;-71
2024/02/04 22:49:53;;;;;;;47.30;32.40;;;12.00;87.50;;;;;;5099489;28;20024;-71
2024/02/04 22:52:19;;;;;;;46.22;31.65;;;12.00;87.80;;;;;;5101163;28;20168;-72
2024/02/04 22:54:45;;;;;;;42.72;31.17;;;11.90;87.70;;;;;;5101279;28;20032;-70
2024/02/04 22:57:11;;;;;;;49.03;31.45;;;12.00;87.70;;;;;;5100591;28;20108;-70
2024/02/04 22:59:37;;;;;;;41.40;29.90;;;11.90;87.60;;;;;;5099693;28;20039;-72
2024/02/04 23:02:03;;;;;;;49.22;31.65;;;11.90;87.80;;;;;;5099506;28;20032;-70
2024/02/04 23:04:30;;;;;;;42.28;30.55;;;11.80;87.80;;;;;;5098465;28;20126;-71
2024/02/04 23:06:56;;;;;;;46.75;31.17;;;11.80;87.50;;;;;;5098141;28;20093;-71
2024/02/04 23:09:22;;;;;;;43.42;30.73;;;11.70;87.50;;;;;;5098283;28;20027;-70
2024/02/04 23:11:48;;;;;;;36.67;28.58;;;11.70;87.50;;;;;;5096868;28;20040;-71
2024/02/04 23:14:14;;;;;;;40.08;28.60;;;11.60;87.40;;;;;;5098887;28;20028;-70
2024/02/04 23:16:39;;;;;;;38.45;28.75;;;11.60;87.70;;;;;;5098794;28;20156;-73
2024/02/04 23:19:05;;;;;;;39.13;26.33;;;11.60;87.60;;;;;;5099377;28;20035;-72
2024/02/04 23:21:31;;;;;;;37.80;27.48;;;11.60;87.60;;;;;;5098700;28;20066;-70
2024/02/04 23:23:56;;;;;;;39.00;26.85;;;11.60;87.30;;;;;;5080682;28;20039;-69
2024/02/04 23:26:22;;;;;;;33.85;25.65;;;11.50;87.80;;;;;;5098514;28;20093;-71
2024/02/04 23:28:49;;;;;;;37.55;25.13;;;11.50;87.90;;;;;;5098689;28;20038;-71
2024/02/04 23:31:16;;;;;;;36.38;25.45;;;11.50;87.60;;;;;;5098431;28;20107;-72
2024/02/04 23:33:42;;;;;;;40.47;25.13;;;11.50;87.70;;;;;;5099171;28;20024;-71
2024/02/04 23:36:07;;;;;;;38.08;25.42;;;11.40;87.80;;;;;;5098838;28;20055;-73
2024/02/04 23:38:34;;;;;;;33.92;24.83;;;11.30;87.50;;;;;;5099025;28;20486;-70
2024/02/04 23:40:59;;;;;;;32.88;24.95;;;11.30;87.80;;;;;;5098642;28;20028;-71
2024/02/04 23:43:25;;;;;;;34.83;24.13;;;11.30;87.60;;;;;;5098543;28;20093;-70
2024/02/04 23:45:51;;;;;;;39.13;24.60;;;11.40;87.80;;;;;;5097673;28;20031;-70
2024/02/04 23:48:16;;;;;;;36.13;24.85;;;11.30;87.40;;;;;;5097311;28;20084;-70
2024/02/04 23:50:43;;;;;;;38.47;24.35;;;11.30;87.30;;;;;;5098273;28;20032;-70
2024/02/04 23:53:09;;;;;;;34.22;25.15;;;11.30;87.50;;;;;;5094608;28;20098;-71
2024/02/04 23:55:35;;;;;;;35.33;24.75;;;11.40;87.30;;;;;;5093795;28;20031;-71
2024/02/04 23:58:00;;;;;;;37.05;24.38;;;11.50;87.20;;;;;;5095315;28;20032;-70
